Time;durP1;ratioP1;P1;durP2;ratioP2;P2;SDS_P1;SDS_P2;PMS_P1;PMS_P2;Temp;Humidity;BMP_temperature;BMP_pressure;BME280_temperature;BME280_humidity;BME280_pressure;Samples;Min_cycle;Max_cycle;Signal;HPM_P1;HPM_P2
2021/09/24 00:00:24;;;;;;;9.32;8.25;;;13.80;76.30;;;;;;5000562;28;20038;-69
2021/09/24 00:02:50;;;;;;;12.02;8.98;;;13.70;75.30;;;;;;4999213;28;20060;-69
2021/09/24 00:05:15;;;;;;;9.32;8.02;;;13.70;75.50;;;;;;4999730;28;20585;-69
2021/09/24 00:07:41;;;;;;;10.27;7.85;;;13.60;75.70;;;;;;5000540;28;20042;-69
2021/09/24 00:10:08;;;;;;;9.13;7.10;;;13.50;77.00;;;;;;4996911;28;20040;-69
2021/09/24 00:12:35;;;;;;;9.45;7.28;;;13.50;76.60;;;;;;4995857;28;20062;-70
2021/09/24 00:15:01;;;;;;;8.82;7.05;;;13.50;77.20;;;;;;4996123;28;20050;-70
2021/09/24 00:17:27;;;;;;;8.40;6.85;;;13.50;77.70;;;;;;4997484;28;20044;-68
2021/09/24 00:19:53;;;;;;;8.25;6.72;;;13.50;78.10;;;;;;4999482;28;20038;-68
2021/09/24 00:22:19;;;;;;;8.93;6.30;;;13.60;78.40;;;;;;4995917;28;20065;-69
2021/09/24 00:24:45;;;;;;;7.47;6.32;;;13.60;78.60;;;;;;4997846;28;20062;-70
2021/09/24 00:27:10;;;;;;;8.13;6.38;;;13.70;78.60;;;;;;4998113;28;20504;-69
2021/09/24 00:29:36;;;;;;;9.07;6.57;;;13.80;78.60;;;;;;4999191;28;20568;-69
2021/09/24 00:32:02;;;;;;;9.00;6.70;;;13.90;78.60;;;;;;4996101;28;20041;-69
2021/09/24 00:34:28;;;;;;;8.75;6.10;;;14.00;78.40;;;;;;5003486;28;20039;-69
2021/09/24 00:36:54;;;;;;;8.52;6.30;;;14.00;78.20;;;;;;4998115;28;20037;-69
2021/09/24 00:39:19;;;;;;;7.43;6.05;;;14.10;78.00;;;;;;4997898;28;20424;-70
2021/09/24 00:41:45;;;;;;;7.53;6.20;;;14.10;77.80;;;;;;4998136;28;20088;-70
2021/09/24 00:44:11;;;;;;;7.47;6.10;;;14.20;77.60;;;;;;4997407;28;20034;-71
2021/09/24 00:46:36;;;;;;;7.30;5.60;;;14.30;77.50;;;;;;4997335;28;20238;-69
2021/09/24 00:49:03;;;;;;;6.07;5.47;;;14.30;77.20;;;;;;5011346;28;20076;-70
2021/09/24 00:51:28;;;;;;;6.30;5.57;;;14.30;77.10;;;;;;4997903;28;20069;-68
2021/09/24 00:53:54;;;;;;;7.28;5.82;;;14.40;77.00;;;;;;4997712;28;20062;-70
2021/09/24 00:56:21;;;;;;;6.05;5.30;;;14.40;76.80;;;;;;4997846;28;20048;-70
2021/09/24 00:58:47;;;;;;;7.47;5.55;;;14.40;76.50;;;;;;4998081;28;20109;-69
2021/09/24 01:01:14;;;;;;;6.80;5.65;;;14.40;76.40;;;;;;4999641;28;20501;-70
2021/09/24 01:03:40;;;;;;;8.98;6.20;;;14.40;76.30;;;;;;4996353;28;20498;-69
2021/09/24 01:06:06;;;;;;;7.35;6.32;;;14.40;76.30;;;;;;4998241;28;20052;-69
2021/09/24 01:08:32;;;;;;;7.05;6.10;;;14.40;76.30;;;;;;4998467;28;20022;-68
2021/09/24 01:10:57;;;;;;;7.15;5.78;;;14.30;76.20;;;;;;4995305;28;20030;-69
2021/09/24 01:13:23;;;;;;;6.15;5.50;;;14.30;76.20;;;;;;4998212;28;20045;-69
2021/09/24 01:15:49;;;;;;;7.55;5.90;;;14.30;76.10;;;;;;4997534;28;20140;-69
2021/09/24 01:18:15;;;;;;;8.07;5.90;;;14.20;76.80;;;;;;4997106;28;20049;-70
2021/09/24 01:20:40;;;;;;;7.22;6.30;;;14.30;75.80;;;;;;4997707;28;20045;-69
2021/09/24 01:23:06;;;;;;;9.82;7.85;;;14.20;75.70;;;;;;4997340;28;20048;-69
2021/09/24 01:25:32;;;;;;;8.52;7.40;;;14.20;75.60;;;;;;4997855;28;20037;-69
2021/09/24 01:27:57;;;;;;;10.13;7.63;;;14.10;75.40;;;;;;4999131;28;20026;-69
2021/09/24 01:30:23;;;;;;;10.27;8.45;;;14.10;75.30;;;;;;4996603;28;20121;-68
2021/09/24 01:32:50;;;;;;;11.85;8.90;;;14.00;75.10;;;;;;4996823;28;20559;-69
2021/09/24 01:35:16;;;;;;;10.40;8.18;;;14.00;75.20;;;;;;4997885;28;20092;-69
2021/09/24 01:37:42;;;;;;;10.93;8.27;;;13.90;75.30;;;;;;4998258;28;20548;-69
2021/09/24 01:40:10;;;;;;;14.15;9.40;;;13.80;75.40;;;;;;4999495;28;20038;-70
2021/09/24 01:42:36;;;;;;;10.30;8.68;;;13.80;75.50;;;;;;4998440;28;20058;-70
2021/09/24 01:45:03;;;;;;;10.32;8.02;;;13.70;75.40;;;;;;5012174;28;20076;-69
2021/09/24 01:47:29;;;;;;;11.63;7.80;;;13.70;75.60;;;;;;4997751;28;20042;-68
2021/09/24 01:49:54;;;;;;;9.18;7.63;;;13.60;75.80;;;;;;4996022;28;20101;-69
2021/09/24 01:52:20;;;;;;;9.55;7.65;;;13.60;75.90;;;;;;4997650;28;20122;-69
2021/09/24 01:54:46;;;;;;;8.95;7.10;;;13.60;75.80;;;;;;4996935;28;20049;-69
2021/09/24 01:57:11;;;;;;;9.23;7.25;;;13.50;75.60;;;;;;5000485;28;20563;-69
2021/09/24 01:59:38;;;;;;;9.23;7.15;;;13.50;75.70;;;;;;5002118;28;20053;-69
2021/09/24 02:02:03;;;;;;;8.23;6.53;;;13.50;75.60;;;;;;5000364;28;20464;-70
2021/09/24 02:04:29;;;;;;;7.65;6.38;;;13.40;75.40;;;;;;4999502;28;20034;-70
2021/09/24 02:06:55;;;;;;;8.15;6.53;;;13.40;75.50;;;;;;4999084;28;20026;-69
2021/09/24 02:09:21;;;;;;;8.65;6.70;;;13.30;75.60;;;;;;5001352;28;20386;-69
2021/09/24 02:11:46;;;;;;;7.15;6.07;;;13.30;75.80;;;;;;5000523;28;20057;-69
2021/09/24 02:14:12;;;;;;;6.65;5.93;;;13.20;75.80;;;;;;5000205;28;20034;-70
2021/09/24 02:16:39;;;;;;;7.38;5.78;;;13.20;76.10;;;;;;4999515;28;20033;-69
2021/09/24 02:19:05;;;;;;;7.35;5.78;;;13.10;76.60;;;;;;5000908;28;21452;-69
2021/09/24 02:21:30;;;;;;;6.15;5.32;;;13.00;76.80;;;;;;5000589;28;20034;-69
2021/09/24 02:23:56;;;;;;;6.43;5.65;;;13.00;77.00;;;;;;4999570;28;20030;-70
2021/09/24 02:26:22;;;;;;;6.20;5.60;;;12.90;77.20;;;;;;4996479;28;20121;-70
2021/09/24 02:28:48;;;;;;;6.78;5.28;;;12.90;77.30;;;;;;4997922;28;20162;-71
2021/09/24 02:31:14;;;;;;;5.43;4.90;;;12.90;77.20;;;;;;4980239;28;20547;-69
2021/09/24 02:33:40;;;;;;;5.45;4.93;;;12.90;77.30;;;;;;4981285;28;20038;-69
2021/09/24 02:36:08;;;;;;;8.68;6.32;;;12.90;77.30;;;;;;4993812;28;20045;-69
2021/09/24 02:38:33;;;;;;;6.13;5.47;;;12.90;77.40;;;;;;4981451;28;20026;-70
2021/09/24 02:41:00;;;;;;;8.93;6.70;;;12.90;77.30;;;;;;4980942;28;20042;-70
2021/09/24 02:43:26;;;;;;;9.25;7.20;;;12.90;77.30;;;;;;4980072;28;20027;-67
2021/09/24 02:45:52;;;;;;;9.63;7.53;;;12.90;77.20;;;;;;4979567;28;20133;-68
2021/09/24 02:48:18;;;;;;;10.30;7.43;;;12.80;77.30;;;;;;4983396;28;20064;-69
2021/09/24 02:50:43;;;;;;;8.15;6.70;;;12.80;77.40;;;;;;4980635;28;20544;-69
2021/09/24 02:53:09;;;;;;;9.85;6.57;;;12.80;77.30;;;;;;4980230;28;20023;-71
2021/09/24 02:55:34;;;;;;;10.13;7.40;;;12.80;77.20;;;;;;4980075;28;20042;-68
2021/09/24 02:58:00;;;;;;;7.22;6.47;;;12.80;77.10;;;;;;4980802;28;20042;-69
2021/09/24 03:00:27;;;;;;;9.30;6.90;;;12.80;76.90;;;;;;4980106;28;20035;-69
2021/09/24 03:02:53;;;;;;;8.38;6.82;;;12.70;76.80;;;;;;4980119;28;20061;-68
2021/09/24 03:05:19;;;;;;;7.97;6.40;;;12.70;76.80;;;;;;4979589;28;20031;-68
2021/09/24 03:07:44;;;;;;;7.82;6.65;;;12.70;76.90;;;;;;4979026;28;20065;-69
2021/09/24 03:10:11;;;;;;;9.45;6.75;;;12.70;76.80;;;;;;4979845;28;20030;-69
2021/09/24 03:12:37;;;;;;;6.82;6.00;;;12.70;76.80;;;;;;4980925;28;20038;-69
2021/09/24 03:15:05;;;;;;;6.97;6.15;;;12.70;76.80;;;;;;4980252;28;20043;-68
2021/09/24 03:17:30;;;;;;;7.93;6.40;;;12.70;76.80;;;;;;4980826;28;20049;-69
2021/09/24 03:19:56;;;;;;;8.60;6.72;;;12.70;76.80;;;;;;4977213;28;20031;-69
2021/09/24 03:22:21;;;;;;;7.10;6.32;;;12.70;76.70;;;;;;4977874;28;20066;-68
2021/09/24 03:24:47;;;;;;;7.65;6.63;;;12.70;76.60;;;;;;5000002;28;20061;-69
2021/09/24 03:27:13;;;;;;;9.05;6.50;;;12.70;76.50;;;;;;4996343;28;20046;-70
2021/09/24 03:29:39;;;;;;;9.30;6.97;;;12.70;76.40;;;;;;5000558;28;20033;-69
2021/09/24 03:32:05;;;;;;;7.80;6.45;;;12.60;76.30;;;;;;4998783;28;20765;-70
2021/09/24 03:34:31;;;;;;;8.98;7.05;;;12.60;76.10;;;;;;5000063;28;20566;-70
2021/09/24 03:36:56;;;;;;;8.25;6.75;;;12.60;76.00;;;;;;4998455;28;20038;-70
2021/09/24 03:39:22;;;;;;;8.52;6.95;;;12.60;75.90;;;;;;4999670;28;20172;-69
2021/09/24 03:41:47;;;;;;;8.80;6.85;;;12.50;75.80;;;;;;4999824;28;20065;-69
2021/09/24 03:44:13;;;;;;;10.20;7.32;;;12.50;75.90;;;;;;4999122;28;20037;-69
2021/09/24 03:46:39;;;;;;;8.23;6.60;;;12.40;76.00;;;;;;5002090;28;20494;-69
2021/09/24 03:49:05;;;;;;;9.38;7.05;;;12.30;75.80;;;;;;4999117;28;20117;-68
2021/09/24 03:51:31;;;;;;;11.80;7.53;;;12.30;75.80;;;;;;5000180;28;20569;-69
2021/09/24 03:53:57;;;;;;;8.50;7.05;;;12.20;76.00;;;;;;4995663;28;20030;-68
2021/09/24 03:56:23;;;;;;;8.70;6.85;;;12.10;76.20;;;;;;4998678;28;20824;-68
2021/09/24 03:58:48;;;;;;;8.13;6.75;;;12.10;76.50;;;;;;5014056;28;20034;-66
2021/09/24 04:01:15;;;;;;;12.05;7.80;;;12.10;76.60;;;;;;5000859;28;20108;-69
2021/09/24 04:03:42;;;;;;;8.85;7.03;;;12.00;76.50;;;;;;4999326;28;20025;-70
2021/09/24 04:06:09;;;;;;;10.63;7.25;;;12.00;76.50;;;;;;4996218;28;20038;-69
2021/09/24 04:08:35;;;;;;;8.93;7.20;;;11.90;76.40;;;;;;4999270;28;20140;-67
2021/09/24 04:11:00;;;;;;;9.13;7.35;;;11.90;76.50;;;;;;4998870;28;20586;-68
2021/09/24 04:13:26;;;;;;;8.50;6.85;;;11.80;76.60;;;;;;4999504;28;20416;-68
2021/09/24 04:15:52;;;;;;;8.65;6.80;;;11.70;76.90;;;;;;4997634;28;20084;-68
2021/09/24 04:18:17;;;;;;;7.72;6.35;;;11.70;77.10;;;;;;4998500;28;20112;-69
2021/09/24 04:20:43;;;;;;;8.38;6.63;;;11.60;77.10;;;;;;4999680;28;20045;-69
2021/09/24 04:23:08;;;;;;;8.50;6.72;;;11.60;77.40;;;;;;4994810;28;20153;-68
2021/09/24 04:25:34;;;;;;;8.70;6.47;;;11.60;77.70;;;;;;4995016;28;20718;-68
2021/09/24 04:28:00;;;;;;;8.20;6.95;;;11.60;77.70;;;;;;4995670;28;20050;-69
2021/09/24 04:30:26;;;;;;;8.95;6.93;;;11.60;77.80;;;;;;4996589;28;20054;-69
2021/09/24 04:32:51;;;;;;;8.75;6.50;;;11.60;77.70;;;;;;4998029;28;20040;-68
2021/09/24 04:35:17;;;;;;;9.35;6.60;;;11.60;77.50;;;;;;4999420;28;20038;-69
2021/09/24 04:37:43;;;;;;;7.65;6.47;;;11.60;77.50;;;;;;5000123;28;20037;-69
2021/09/24 04:40:09;;;;;;;7.68;6.38;;;11.60;77.50;;;;;;4999460;28;20452;-70
2021/09/24 04:42:35;;;;;;;8.00;6.60;;;11.60;77.40;;;;;;4999560;28;20472;-70
2021/09/24 04:45:01;;;;;;;8.23;6.90;;;11.60;77.50;;;;;;4997981;28;20031;-70
2021/09/24 04:47:26;;;;;;;8.65;7.15;;;11.70;77.50;;;;;;4998809;28;20042;-69
2021/09/24 04:49:52;;;;;;;8.95;6.43;;;11.70;77.50;;;;;;4997792;28;20057;-69
2021/09/24 04:52:20;;;;;;;10.40;6.60;;;11.70;77.20;;;;;;4997874;28;20038;-69
2021/09/24 04:54:47;;;;;;;10.60;6.78;;;11.70;76.80;;;;;;4996927;28;20065;-69
2021/09/24 04:57:13;;;;;;;8.02;5.75;;;11.60;76.70;;;;;;4997892;28;20042;-70
2021/09/24 04:59:38;;;;;;;9.70;6.40;;;11.60;76.80;;;;;;4999369;28;20616;-70
2021/09/24 05:02:04;;;;;;;9.13;6.70;;;11.50;76.90;;;;;;4997207;28;20041;-68
2021/09/24 05:04:30;;;;;;;8.55;6.28;;;11.40;77.20;;;;;;4998194;28;20033;-66
2021/09/24 05:06:55;;;;;;;7.80;6.10;;;11.40;77.40;;;;;;4999411;28;20027;-69
2021/09/24 05:09:21;;;;;;;7.13;6.05;;;11.40;77.50;;;;;;4999494;28;20033;-68
2021/09/24 05:11:46;;;;;;;9.00;6.25;;;11.30;77.80;;;;;;4997774;28;20042;-68
2021/09/24 05:14:12;;;;;;;8.65;6.05;;;11.30;78.40;;;;;;5003897;28;20042;-68
2021/09/24 05:16:37;;;;;;;10.18;6.47;;;11.20;78.80;;;;;;4998829;28;20037;-68
2021/09/24 05:19:03;;;;;;;10.52;6.40;;;11.20;79.00;;;;;;4998338;28;20042;-69
2021/09/24 05:21:29;;;;;;;9.98;7.20;;;11.20;79.10;;;;;;4999537;28;20113;-68
2021/09/24 05:23:54;;;;;;;10.32;8.18;;;11.20;79.10;;;;;;4998468;28;20038;-68
2021/09/24 05:26:20;;;;;;;11.73;8.27;;;11.20;78.90;;;;;;4998183;28;20037;-70
2021/09/24 05:28:46;;;;;;;11.70;7.75;;;11.30;78.70;;;;;;4999742;28;20053;-69
2021/09/24 05:31:12;;;;;;;10.18;6.97;;;11.30;78.70;;;;;;4999832;28;20038;-68
2021/09/24 05:33:37;;;;;;;9.10;7.18;;;11.30;78.70;;;;;;5002924;28;20038;-68
2021/09/24 05:36:03;;;;;;;9.93;7.43;;;11.30;78.80;;;;;;5001416;28;20042;-68
2021/09/24 05:38:29;;;;;;;9.70;7.43;;;11.30;78.90;;;;;;5002377;28;20383;-69
2021/09/24 05:40:55;;;;;;;8.68;6.72;;;11.40;78.80;;;;;;5003236;28;20125;-68
2021/09/24 05:43:20;;;;;;;9.05;7.07;;;11.40;78.80;;;;;;5003233;28;20569;-67
2021/09/24 05:45:46;;;;;;;17.63;8.23;;;11.50;78.70;;;;;;5000951;28;20061;-70
2021/09/24 05:48:12;;;;;;;13.05;8.68;;;11.50;78.60;;;;;;5001147;28;20053;-68
2021/09/24 05:50:37;;;;;;;13.40;9.07;;;11.50;78.60;;;;;;5000999;28;20038;-68
2021/09/24 05:53:04;;;;;;;16.27;10.02;;;11.60;78.60;;;;;;5001394;28;20030;-68
2021/09/24 05:55:29;;;;;;;18.25;12.55;;;11.60;78.40;;;;;;5002154;28;20092;-66
2021/09/24 05:57:55;;;;;;;21.70;14.10;;;11.60;78.20;;;;;;5002671;28;20430;-68
2021/09/24 06:00:22;;;;;;;21.63;15.02;;;11.60;78.00;;;;;;5002265;28;20327;-69
2021/09/24 06:02:49;;;;;;;20.98;13.88;;;11.60;78.00;;;;;;4998518;28;20054;-68
2021/09/24 06:05:17;;;;;;;17.45;12.55;;;11.60;78.10;;;;;;4982836;28;20065;-69
2021/09/24 06:07:45;;;;;;;22.52;11.85;;;11.60;78.30;;;;;;4982424;28;20417;-69
2021/09/24 06:10:13;;;;;;;15.55;11.32;;;11.50;78.40;;;;;;4981902;28;20038;-68
2021/09/24 06:12:39;;;;;;;14.48;9.70;;;11.50;78.80;;;;;;4979925;28;20031;-68
2021/09/24 06:15:06;;;;;;;14.00;8.98;;;11.50;78.90;;;;;;4979669;28;20038;-68
2021/09/24 06:17:32;;;;;;;11.38;8.30;;;11.50;79.40;;;;;;4979148;28;20584;-70
2021/09/24 06:19:59;;;;;;;13.05;9.20;;;11.60;79.80;;;;;;4979868;28;20109;-70
2021/09/24 06:22:25;;;;;;;12.93;9.45;;;11.60;80.30;;;;;;4979641;28;20099;-69
2021/09/24 06:24:51;;;;;;;11.80;8.23;;;11.70;80.80;;;;;;4980414;28;20093;-68
2021/09/24 06:27:17;;;;;;;11.98;8.13;;;11.70;81.00;;;;;;4980766;28;20457;-69
2021/09/24 06:29:48;;;;;;;10.55;8.27;;;11.80;81.20;;;;;;4981742;28;20595;-68
2021/09/24 06:32:14;;;;;;;11.77;8.88;;;11.90;82.40;;;;;;4981291;28;20039;-69
2021/09/24 06:34:41;;;;;;;10.60;7.95;;;11.90;81.30;;;;;;4981307;28;20073;-68
2021/09/24 06:37:07;;;;;;;9.90;7.93;;;12.00;81.50;;;;;;4980958;28;20497;-69
2021/09/24 06:39:33;;;;;;;11.80;7.97;;;12.10;81.70;;;;;;4982806;28;20045;-69
2021/09/24 06:41:59;;;;;;;11.98;8.07;;;12.20;81.60;;;;;;4987214;28;20259;-69
2021/09/24 06:44:25;;;;;;;10.75;8.07;;;12.20;81.60;;;;;;4981322;28;20405;-68
2021/09/24 06:46:51;;;;;;;12.23;8.05;;;12.30;81.60;;;;;;4981436;28;20042;-70
2021/09/24 06:49:20;;;;;;;12.35;8.45;;;12.40;81.70;;;;;;4980280;28;20469;-68
2021/09/24 06:51:46;;;;;;;11.60;8.43;;;12.50;81.90;;;;;;4980153;28;20053;-69
2021/09/24 06:54:12;;;;;;;12.15;8.95;;;12.60;82.00;;;;;;4980579;28;20031;-69
2021/09/24 06:56:37;;;;;;;11.85;8.48;;;12.70;82.20;;;;;;4980957;28;20077;-68
2021/09/24 06:59:03;;;;;;;13.50;8.80;;;12.70;82.40;;;;;;4980095;28;20430;-69
2021/09/24 07:01:29;;;;;;;11.77;8.52;;;12.80;82.60;;;;;;4978029;28;20381;-69
2021/09/24 07:03:55;;;;;;;11.85;8.73;;;12.90;82.70;;;;;;4979078;28;20046;-69
2021/09/24 07:06:21;;;;;;;10.90;8.05;;;13.00;82.90;;;;;;4983334;28;20490;-68
2021/09/24 07:08:47;;;;;;;11.00;8.65;;;13.10;83.10;;;;;;4977694;28;20643;-69
2021/09/24 07:11:12;;;;;;;11.77;8.68;;;13.20;83.20;;;;;;4978141;28;20429;-69
2021/09/24 07:13:38;;;;;;;10.13;7.72;;;13.30;83.30;;;;;;4977175;28;20085;-69
2021/09/24 07:16:05;;;;;;;11.25;8.82;;;13.40;83.20;;;;;;4979165;28;20034;-69
2021/09/24 07:18:31;;;;;;;10.82;8.13;;;13.50;83.10;;;;;;4980174;28;20035;-69
2021/09/24 07:20:57;;;;;;;11.02;8.55;;;13.70;83.30;;;;;;4980689;28;20026;-70
2021/09/24 07:23:23;;;;;;;12.75;8.98;;;13.80;83.50;;;;;;4978484;28;20039;-70
2021/09/24 07:25:50;;;;;;;11.30;8.38;;;13.90;83.60;;;;;;4980878;28;20050;-69
2021/09/24 07:28:16;;;;;;;11.75;9.25;;;14.00;83.50;;;;;;4978918;28;20039;-69
2021/09/24 07:30:42;;;;;;;12.50;9.02;;;14.10;83.40;;;;;;4979439;28;20402;-69
2021/09/24 07:33:08;;;;;;;11.68;8.80;;;14.20;83.30;;;;;;4979523;28;20038;-70
2021/09/24 07:35:34;;;;;;;12.32;9.80;;;14.40;83.40;;;;;;4986372;28;20109;-68
2021/09/24 07:38:00;;;;;;;14.35;9.82;;;14.50;83.40;;;;;;4979516;28;20529;-69
2021/09/24 07:40:27;;;;;;;11.90;9.73;;;14.60;83.20;;;;;;4979702;28;20038;-68
2021/09/24 07:42:54;;;;;;;13.70;9.65;;;14.70;83.10;;;;;;4980479;28;20042;-68
2021/09/24 07:45:21;;;;;;;14.32;9.93;;;14.80;82.90;;;;;;4979470;28;20034;-69
2021/09/24 07:47:47;;;;;;;13.57;10.45;;;15.00;82.90;;;;;;4978447;28;20105;-68
2021/09/24 07:50:13;;;;;;;13.82;9.75;;;15.00;82.70;;;;;;4977576;28;20363;-69
2021/09/24 07:52:38;;;;;;;15.38;9.02;;;15.10;83.30;;;;;;4978291;28;20042;-69
2021/09/24 07:55:05;;;;;;;12.02;9.95;;;15.20;82.40;;;;;;4978998;28;20044;-70
2021/09/24 07:57:30;;;;;;;11.98;9.20;;;15.30;82.30;;;;;;4979691;28;20184;-69
2021/09/24 07:59:56;;;;;;;11.60;9.50;;;15.40;82.20;;;;;;4980447;28;20113;-69
2021/09/24 08:02:22;;;;;;;11.35;9.07;;;15.50;82.00;;;;;;4977888;28;20049;-65
2021/09/24 08:04:47;;;;;;;13.13;9.52;;;15.70;81.90;;;;;;4975021;28;20352;-70
2021/09/24 08:07:13;;;;;;;13.30;9.77;;;15.80;81.60;;;;;;4983422;28;20124;-68
2021/09/24 08:09:39;;;;;;;13.45;9.95;;;15.80;81.70;;;;;;4986847;28;20050;-68
2021/09/24 08:12:05;;;;;;;11.63;9.00;;;15.90;81.50;;;;;;4979098;28;20038;-71
2021/09/24 08:14:31;;;;;;;12.00;9.45;;;16.00;81.20;;;;;;4976704;28;20565;-69
2021/09/24 08:16:57;;;;;;;13.13;9.77;;;16.10;80.80;;;;;;4976868;28;20633;-68
2021/09/24 08:19:23;;;;;;;11.70;9.52;;;16.20;80.90;;;;;;4978552;28;20043;-70
2021/09/24 08:21:49;;;;;;;11.63;8.93;;;16.30;80.70;;;;;;4978224;28;20034;-70
2021/09/24 08:24:15;;;;;;;9.77;8.73;;;16.40;80.40;;;;;;4976283;28;20035;-69
2021/09/24 08:26:40;;;;;;;11.75;8.57;;;16.50;80.20;;;;;;4978129;28;20037;-68
2021/09/24 08:29:06;;;;;;;12.98;9.30;;;16.60;80.00;;;;;;4977127;28;20054;-70
2021/09/24 08:31:33;;;;;;;10.10;8.48;;;16.60;79.80;;;;;;4977034;28;20509;-70
2021/09/24 08:33:58;;;;;;;10.75;8.70;;;16.70;79.80;;;;;;4976708;28;20053;-68
2021/09/24 08:36:25;;;;;;;12.02;9.27;;;16.80;79.80;;;;;;4976661;28;20027;-69
2021/09/24 08:38:51;;;;;;;9.30;8.05;;;16.90;79.80;;;;;;4976043;28;20400;-68
2021/09/24 08:41:17;;;;;;;9.70;7.07;;;17.00;79.40;;;;;;4974889;28;20031;-68
2021/09/24 08:43:47;;;;;;;8.27;7.38;;;17.00;78.60;;;;;;4976912;28;20113;-69
2021/09/24 08:46:15;;;;;;;9.55;8.02;;;17.10;77.50;;;;;;4975864;28;20122;-69
2021/09/24 08:48:41;;;;;;;12.05;8.25;;;17.20;77.60;;;;;;4977029;28;20026;-69
2021/09/24 08:51:08;;;;;;;9.75;7.57;;;17.20;77.40;;;;;;4977802;28;20506;-69
2021/09/24 08:53:36;;;;;;;8.98;7.70;;;17.30;77.30;;;;;;4976738;28;20038;-68
2021/09/24 08:56:03;;;;;;;11.27;8.10;;;17.30;77.50;;;;;;4976053;28;20053;-68
2021/09/24 08:58:29;;;;;;;8.15;7.30;;;17.40;77.40;;;;;;4976341;28;20035;-69
2021/09/24 09:00:54;;;;;;;7.95;7.15;;;17.50;77.10;;;;;;4976250;28;20037;-68
2021/09/24 09:03:20;;;;;;;9.27;7.05;;;17.50;77.00;;;;;;4975421;28;20405;-68
2021/09/24 09:05:50;;;;;;;7.75;6.95;;;17.60;77.20;;;;;;4981332;28;20035;-69
2021/09/24 09:08:23;;;;;;;9.90;7.43;;;17.60;77.00;;;;;;4980971;28;20038;-69
2021/09/24 09:10:57;;;;;;;10.30;7.15;;;17.70;77.00;;;;;;5000578;28;20092;-70
2021/09/24 09:13:39;;;;;;;10.00;7.67;;;17.80;76.60;;;;;;5001097;28;20038;-70
2021/09/24 09:16:11;;;;;;;10.35;7.38;;;17.90;76.30;;;;;;4998646;28;20468;-68
2021/09/24 09:18:40;;;;;;;11.35;7.10;;;17.90;76.60;;;;;;4999694;28;20030;-69
2021/09/24 09:21:08;;;;;;;8.10;7.10;;;18.00;76.30;;;;;;4999277;28;20057;-69
2021/09/24 09:23:37;;;;;;;7.45;6.68;;;18.10;76.20;;;;;;4999882;28;20034;-70
2021/09/24 09:26:07;;;;;;;7.10;6.40;;;18.20;76.00;;;;;;4998706;28;20077;-69
2021/09/24 09:28:35;;;;;;;10.23;7.35;;;18.30;75.60;;;;;;4999900;28;20133;-70
2021/09/24 09:31:14;;;;;;;6.93;6.22;;;18.30;75.10;;;;;;4999641;28;20497;-69
2021/09/24 09:33:39;;;;;;;7.63;6.82;;;18.40;74.80;;;;;;5000042;28;20080;-69
2021/09/24 09:36:05;;;;;;;7.28;6.57;;;18.50;74.40;;;;;;4998817;28;20116;-69
2021/09/24 09:38:41;;;;;;;7.20;6.40;;;18.50;74.20;;;;;;5002155;28;20042;-70
2021/09/24 09:41:10;;;;;;;6.57;5.97;;;18.60;74.00;;;;;;5003714;28;20042;-69
2021/09/24 09:43:41;;;;;;;7.00;5.80;;;18.60;73.30;;;;;;5003745;28;20033;-69
2021/09/24 09:46:12;;;;;;;6.90;6.22;;;18.60;73.00;;;;;;5003270;28;20130;-69
2021/09/24 09:48:38;;;;;;;7.38;6.22;;;18.70;72.90;;;;;;5001265;28;20037;-68
2021/09/24 09:51:04;;;;;;;8.13;6.05;;;18.70;73.00;;;;;;5001909;28;20060;-69
2021/09/24 09:53:30;;;;;;;6.80;6.15;;;18.70;72.60;;;;;;5001694;28;20037;-69
2021/09/24 09:55:59;;;;;;;8.00;5.70;;;18.80;72.40;;;;;;5002498;28;20040;-70
2021/09/24 09:58:28;;;;;;;7.20;5.53;;;18.80;71.90;;;;;;5001341;28;20034;-70
2021/09/24 10:01:16;;;;;;;6.82;5.65;;;18.90;72.40;;;;;;5002641;28;20038;-70
2021/09/24 10:03:51;;;;;;;5.97;5.13;;;18.90;71.40;;;;;;5001790;28;20034;-70
2021/09/24 10:06:26;;;;;;;5.85;5.30;;;19.00;71.60;;;;;;5002376;28;20062;-68
2021/09/24 10:08:54;;;;;;;;;;;19.00;71.10;;;;;;5001168;28;20497;-69
2021/09/24 10:11:29;;;;;;;8.90;5.05;;;19.10;71.90;;;;;;5002607;28;19910;-70
2021/09/24 10:13:57;;;;;;;8.85;5.75;;;19.20;71.10;;;;;;5001974;28;20041;-69
2021/09/24 10:16:26;;;;;;;7.28;5.10;;;19.20;71.40;;;;;;5000789;28;20517;-71
2021/09/24 10:18:52;;;;;;;6.80;6.20;;;19.20;71.00;;;;;;5002168;28;20029;-70
2021/09/24 10:21:18;;;;;;;6.05;5.25;;;19.30;70.50;;;;;;5002011;28;20073;-70
2021/09/24 10:23:45;;;;;;;6.65;5.47;;;19.30;69.60;;;;;;5000345;28;20061;-69
2021/09/24 10:26:24;;;;;;;5.90;5.38;;;19.30;69.70;;;;;;5001495;28;20079;-70
2021/09/24 10:28:56;;;;;;;5.28;4.78;;;19.40;69.50;;;;;;5016811;28;20378;-69
2021/09/24 10:31:23;;;;;;;5.03;4.63;;;19.40;69.50;;;;;;5001122;28;20037;-69
2021/09/24 10:33:55;;;;;;;5.72;5.07;;;19.50;70.20;;;;;;5007671;28;20393;-69
2021/09/24 10:36:49;;;;;;;5.10;4.63;;;19.60;69.70;;;;;;5001860;28;20088;-70
2021/09/24 10:39:30;;;;;;;5.00;4.50;;;19.60;68.30;;;;;;5001605;28;20512;-69
2021/09/24 10:42:33;;;;;;;6.00;4.32;;;19.70;68.50;;;;;;4998132;28;20489;-69
2021/09/24 10:45:05;;;;;;;5.13;4.60;;;19.90;68.30;;;;;;4974913;28;20594;-70
2021/09/24 10:47:47;;;;;;;5.13;4.63;;;20.00;68.80;;;;;;4998176;28;20619;-70
2021/09/24 10:50:36;;;;;;;5.07;4.57;;;20.10;67.20;;;;;;4998351;28;20046;-69
2021/09/24 10:53:17;;;;;;;8.02;4.88;;;20.20;66.40;;;;;;4997122;28;20030;-70
2021/09/24 10:55:47;;;;;;;5.25;4.72;;;20.20;66.60;;;;;;4998525;28;20445;-70
2021/09/24 10:58:16;;;;;;;4.22;3.83;;;20.30;66.60;;;;;;4997747;28;20042;-69
2021/09/24 11:00:47;;;;;;;5.18;4.25;;;20.40;67.30;;;;;;4998936;28;20533;-67
2021/09/24 11:03:15;;;;;;;4.07;3.78;;;20.40;66.90;;;;;;4998497;28;20065;-69
2021/09/24 11:05:53;;;;;;;4.85;3.58;;;20.50;66.70;;;;;;4999187;28;20026;-69
2021/09/24 11:08:34;;;;;;;6.60;3.28;;;20.60;63.20;;;;;;4995999;28;20030;-70
2021/09/24 11:11:16;;;;;;;4.38;3.60;;;20.70;63.60;;;;;;4995389;28;20048;-70
2021/09/24 11:13:44;;;;;;;3.38;3.05;;;20.70;61.80;;;;;;4998072;28;20496;-69
2021/09/24 11:16:16;;;;;;;3.10;2.90;;;20.80;61.90;;;;;;4998678;28;20048;-70
2021/09/24 11:18:57;;;;;;;3.53;3.20;;;20.80;60.60;;;;;;4997296;28;20045;-70
2021/09/24 11:21:25;;;;;;;3.60;3.28;;;20.80;59.60;;;;;;4998344;28;20125;-69
2021/09/24 11:23:54;;;;;;;3.63;3.33;;;20.80;61.20;;;;;;4996691;28;20567;-69
2021/09/24 11:26:21;;;;;;;4.05;3.17;;;20.80;61.30;;;;;;4996700;28;20088;-69
2021/09/24 11:29:02;;;;;;;3.20;2.90;;;20.90;61.40;;;;;;4994828;28;20042;-69
2021/09/24 11:31:53;;;;;;;4.97;3.35;;;21.00;62.00;;;;;;5000501;28;20046;-70
2021/09/24 11:34:43;;;;;;;4.00;3.47;;;21.10;60.80;;;;;;4996245;28;20057;-70
2021/09/24 11:37:24;;;;;;;3.50;3.20;;;21.10;60.00;;;;;;4996804;28;20030;-69
2021/09/24 11:40:05;;;;;;;2.85;2.65;;;21.30;60.20;;;;;;4998389;28;20519;-70
2021/09/24 11:42:37;;;;;;;2.72;2.53;;;21.30;59.90;;;;;;4997157;28;20172;-70
2021/09/24 11:45:05;;;;;;;2.80;2.60;;;21.40;58.90;;;;;;4995880;28;20030;-69
2021/09/24 11:47:40;;;;;;;2.65;2.45;;;21.40;58.20;;;;;;4996894;28;20033;-70
2021/09/24 11:50:18;;;;;;;2.80;2.60;;;21.50;58.20;;;;;;5075580;27;20797;-69
2021/09/24 11:52:51;;;;;;;2.90;2.70;;;21.50;57.30;;;;;;5048265;28;20582;-70
2021/09/24 11:55:17;;;;;;;2.80;2.60;;;21.50;57.90;;;;;;5069121;28;20029;-69
2021/09/24 11:58:09;;;;;;;2.80;2.60;;;21.60;58.40;;;;;;5075297;28;20039;-68
2021/09/24 12:00:50;;;;;;;2.50;2.30;;;21.60;57.90;;;;;;5072880;28;20041;-71
2021/09/24 12:03:21;;;;;;;3.17;2.83;;;21.70;58.20;;;;;;5074156;28;20037;-69
2021/09/24 12:05:55;;;;;;;3.03;2.20;;;21.70;57.50;;;;;;5071939;28;20031;-69
2021/09/24 12:08:26;;;;;;;2.30;2.10;;;21.80;56.30;;;;;;5074533;28;20511;-69
2021/09/24 12:11:04;;;;;;;2.70;2.50;;;21.80;56.60;;;;;;5071966;28;20037;-69
2021/09/24 12:13:51;;;;;;;2.90;2.35;;;21.80;56.80;;;;;;5074335;28;20025;-69
2021/09/24 12:16:20;;;;;;;2.60;2.40;;;21.90;56.80;;;;;;5071869;28;20036;-69
2021/09/24 12:18:50;;;;;;;2.22;2.00;;;22.00;57.10;;;;;;5085158;28;20033;-70
2021/09/24 12:21:19;;;;;;;2.38;2.03;;;22.00;57.10;;;;;;5063407;28;20078;-69
2021/09/24 12:23:45;;;;;;;2.40;2.20;;;22.10;56.40;;;;;;5062014;28;20471;-69
2021/09/24 12:26:12;;;;;;;2.78;2.53;;;22.10;56.10;;;;;;5061454;28;20032;-69
2021/09/24 12:28:53;;;;;;;3.00;2.60;;;22.20;55.40;;;;;;5060796;28;20033;-69
2021/09/24 12:31:44;;;;;;;2.17;2.08;;;22.20;55.20;;;;;;5057394;28;20391;-69
2021/09/24 12:34:13;;;;;;;2.40;2.25;;;22.20;54.80;;;;;;5070995;28;20036;-69
2021/09/24 12:36:50;;;;;;;2.80;2.60;;;22.20;55.80;;;;;;5071424;28;20020;-70
2021/09/24 12:39:17;;;;;;;2.70;2.50;;;22.30;54.50;;;;;;5073260;28;20618;-69
2021/09/24 12:41:44;;;;;;;3.00;2.45;;;22.30;55.50;;;;;;5072547;28;20037;-69
2021/09/24 12:44:10;;;;;;;4.22;2.83;;;22.40;55.70;;;;;;5071308;28;20426;-69
2021/09/24 12:46:56;;;;;;;2.80;2.60;;;22.40;55.50;;;;;;5071832;28;20024;-69